createdAt,value
2023-01-22T00:00:35.702Z,101387.81
2023-01-22T00:03:02.217Z,101344.13
2023-01-22T00:05:28.739Z,101352.88
2023-01-22T00:07:56.329Z,101390.47
2023-01-22T00:10:23.826Z,101359.91
2023-01-22T00:12:50.380Z,101248.19
2023-01-22T00:15:16.971Z,101380.88
2023-01-22T00:17:44.487Z,101322.44
2023-01-22T00:20:12.442Z,101313.72
2023-01-22T00:22:38.949Z,101340.78
2023-01-22T00:25:06.062Z,101313.72
2023-01-22T00:27:32.686Z,101303.22
2023-01-22T00:29:59.314Z,101317.13
2023-01-22T00:32:25.887Z,101352.06
2023-01-22T00:34:54.957Z,101090.44
2023-01-22T00:37:21.611Z,101041.50
2023-01-22T00:39:48.231Z,101353.81
2023-01-22T00:42:14.961Z,101180.13
2023-01-22T00:44:41.511Z,101238.66
2023-01-22T00:47:08.156Z,101353.81
2023-01-22T00:49:36.271Z,101328.50
2023-01-22T00:52:02.880Z,101374.75
2023-01-22T00:54:30.270Z,101263.94
2023-01-22T00:56:56.880Z,101263.91
2023-01-22T00:59:23.418Z,101329.38
2023-01-22T01:01:50.131Z,101304.06
2023-01-22T01:04:16.796Z,101182.78
2023-01-22T01:06:43.546Z,101284.91
2023-01-22T01:09:10.257Z,101047.66
2023-01-22T01:11:37.594Z,101259.63
2023-01-22T01:14:04.533Z,101335.56
2023-01-22T01:16:31.952Z,101195.91
2023-01-22T01:19:06.818Z,101274.38
2023-01-22T01:21:33.958Z,101324.13
2023-01-22T01:24:00.902Z,101266.50
2023-01-22T01:26:27.478Z,101260.44
2023-01-22T01:28:54.115Z,101326.78
2023-01-22T01:31:23.426Z,101325.91
2023-01-22T01:33:49.993Z,101333.72
2023-01-22T01:36:35.467Z,101287.53
2023-01-22T01:39:06.342Z,101363.38
2023-01-22T01:41:32.871Z,101321.53
2023-01-22T01:44:30.657Z,101359.13
2023-01-22T01:47:06.239Z,101346.03
2023-01-22T01:49:47.601Z,101337.31
2023-01-22T01:52:16.267Z,101372.22
2023-01-22T01:54:47.020Z,101264.97
2023-01-22T01:57:19.031Z,101242.19
2023-01-22T01:59:48.066Z,101246.56
2023-01-22T02:02:15.666Z,101339.13
2023-01-22T02:04:42.347Z,101359.25
2023-01-22T02:07:09.028Z,101301.56
2023-01-22T02:09:35.592Z,101266.63
2023-01-22T02:12:02.877Z,101357.47
2023-01-22T02:14:37.683Z,101322.50
2023-01-22T02:17:12.210Z,101357.50
2023-01-22T02:19:39.868Z,101295.56
2023-01-22T02:22:20.155Z,101293.75
2023-01-22T02:24:46.627Z,101360.09
2023-01-22T02:27:13.334Z,101318.19
2023-01-22T02:29:40.546Z,101338.31
2023-01-22T02:32:07.689Z,101305.09
2023-01-22T02:34:34.474Z,101366.16
2023-01-22T02:37:01.368Z,101271.94
2023-01-22T02:39:27.879Z,101342.63
2023-01-22T02:41:54.734Z,101356.66
2023-01-22T02:44:21.285Z,101333.00
2023-01-22T02:46:47.774Z,101333.00
2023-01-22T02:49:14.379Z,101272.81
2023-01-22T02:51:40.838Z,101319.06
2023-01-22T02:54:07.326Z,101326.97
2023-01-22T02:56:34.688Z,101361.88
2023-01-22T02:59:02.842Z,101333.97
2023-01-22T03:01:29.581Z,101313.81
2023-01-22T03:04:13.459Z,101345.31
2023-01-22T03:06:43.565Z,101319.06
2023-01-22T03:09:12.039Z,101353.06
2023-01-22T03:11:40.260Z,101326.06
2023-01-22T03:14:25.758Z,101366.22
2023-01-22T03:17:11.497Z,101299.94
2023-01-22T03:19:56.780Z,101292.88
2023-01-22T03:22:23.450Z,101342.69
2023-01-22T03:24:52.100Z,101320.00
2023-01-22T03:27:21.568Z,101281.56
2023-01-22T03:29:48.214Z,101340.03
2023-01-22T03:32:15.098Z,101340.88
2023-01-22T03:34:41.679Z,101337.41
2023-01-22T03:37:09.163Z,101357.53
2023-01-22T03:39:35.684Z,101293.81
2023-01-22T03:42:02.203Z,101285.06
2023-01-22T03:44:28.763Z,101367.09
2023-01-22T03:46:55.298Z,101333.09
2023-01-22T03:49:21.995Z,101362.75
2023-01-22T03:51:48.452Z,101366.22
2023-01-22T03:54:16.179Z,101313.84
2023-01-22T03:56:43.192Z,101262.38
2023-01-22T03:59:10.689Z,101341.88
2023-01-22T04:01:37.555Z,101246.72
2023-01-22T04:04:04.825Z,101354.06
2023-01-22T04:06:31.373Z,101266.84
2023-01-22T04:08:57.874Z,101304.31
2023-01-22T04:11:24.703Z,101367.97
2023-01-22T04:13:51.308Z,101261.47
2023-01-22T04:16:18.084Z,101233.56
2023-01-22T04:18:44.884Z,101355.72
2023-01-22T04:21:11.532Z,101374.09
2023-01-22T04:23:38.021Z,101364.47
2023-01-22T04:26:04.692Z,101351.38
2023-01-22T04:28:31.406Z,101346.13
2023-01-22T04:30:58.168Z,101293.75
2023-01-22T04:33:24.709Z,101354.88
2023-01-22T04:35:53.031Z,101342.69
2023-01-22T04:38:20.070Z,101300.75
2023-01-22T04:40:46.829Z,101360.13
2023-01-22T04:43:13.358Z,101284.19
2023-01-22T04:45:39.977Z,101333.03
2023-01-22T04:48:08.433Z,101340.03
2023-01-22T04:50:35.126Z,101380.19
2023-01-22T04:53:02.126Z,101360.09
2023-01-22T04:55:29.356Z,101384.53
2023-01-22T04:57:57.483Z,101354.00
2023-01-22T05:00:25.135Z,101344.47
2023-01-22T05:02:56.445Z,101372.31
2023-01-22T05:05:23.491Z,101326.13
2023-01-22T05:07:49.991Z,101362.72
2023-01-22T05:10:17.095Z,101346.97
2023-01-22T05:12:43.837Z,101355.72
2023-01-22T05:15:23.266Z,101323.44
2023-01-22T05:17:50.862Z,101362.72
2023-01-22T05:20:18.081Z,101338.28
2023-01-22T05:22:44.890Z,101251.00
2023-01-22T05:25:11.415Z,101321.66
2023-01-22T05:27:38.163Z,101313.84
2023-01-22T05:30:06.173Z,101379.28
2023-01-22T05:32:32.816Z,101363.59
2023-01-22T05:34:59.448Z,101329.56
2023-01-22T05:37:25.997Z,101334.81
2023-01-22T05:39:52.474Z,101361.84
2023-01-22T05:42:19.139Z,101381.91
2023-01-22T05:44:45.595Z,101340.00
2023-01-22T05:47:13.505Z,101321.69
2023-01-22T05:49:40.138Z,101333.00
2023-01-22T05:52:06.929Z,101332.13
2023-01-22T05:54:33.403Z,101381.88
2023-01-22T05:56:59.904Z,101286.78
2023-01-22T05:59:26.397Z,101381.00
2023-01-22T06:01:52.939Z,101259.75
2023-01-22T06:04:19.398Z,101300.69
2023-01-22T06:06:45.904Z,101332.19
2023-01-22T06:09:13.993Z,101394.16
2023-01-22T06:11:40.552Z,101326.03
2023-01-22T06:14:07.211Z,101384.50
2023-01-22T06:16:33.754Z,101419.38
2023-01-22T06:19:00.235Z,101379.25
2023-01-22T06:21:26.925Z,101318.19
2023-01-22T06:23:53.594Z,101401.09
2023-01-22T06:26:20.157Z,101411.63
2023-01-22T06:28:46.618Z,101329.47
2023-01-22T06:31:13.204Z,101408.09
2023-01-22T06:33:41.536Z,101422.03
2023-01-22T06:36:08.817Z,101241.31
2023-01-22T06:38:36.670Z,101328.59
2023-01-22T06:41:03.259Z,101401.88
2023-01-22T06:43:29.745Z,101338.16
2023-01-22T06:45:56.279Z,101424.63
2023-01-22T06:48:23.135Z,101400.19
2023-01-22T06:50:49.883Z,101434.25
2023-01-22T06:53:16.619Z,101435.97
2023-01-22T06:55:43.149Z,101422.88
2023-01-22T06:58:09.803Z,101399.25
2023-01-22T07:00:36.463Z,101379.16
2023-01-22T07:03:06.383Z,101428.94
2023-01-22T07:05:32.902Z,101399.28
2023-01-22T07:07:59.442Z,101453.38
2023-01-22T07:10:25.967Z,101409.75
2023-01-22T07:12:56.240Z,101433.31
2023-01-22T07:15:22.780Z,101411.44
2023-01-22T07:17:53.489Z,101353.81
2023-01-22T07:20:20.533Z,101456.84
2023-01-22T07:22:47.130Z,101280.31
2023-01-22T07:25:13.749Z,101413.03
2023-01-22T07:27:40.447Z,101434.03
2023-01-22T07:30:08.975Z,101369.34
2023-01-22T07:32:36.178Z,101364.06
2023-01-22T07:35:02.726Z,101386.72
2023-01-22T07:37:29.267Z,101482.78
2023-01-22T07:39:55.801Z,101442.63
2023-01-22T07:42:22.321Z,101456.53
2023-01-22T07:44:48.793Z,101419.88
2023-01-22T07:47:15.318Z,101342.16
2023-01-22T07:49:41.784Z,101420.75
2023-01-22T07:52:08.295Z,101463.50
2023-01-22T07:54:36.389Z,101428.50
2023-01-22T07:57:04.270Z,101444.31
2023-01-22T07:59:30.822Z,101475.78
2023-01-22T08:01:57.407Z,101463.53
2023-01-22T08:04:24.642Z,101504.59
2023-01-22T08:06:51.760Z,101507.22
2023-01-22T08:09:25.793Z,101473.19
2023-01-22T08:11:53.165Z,101464.41
2023-01-22T08:14:20.060Z,101397.16
2023-01-22T08:16:47.373Z,101464.44
2023-01-22T08:19:14.604Z,101432.09
2023-01-22T08:21:41.344Z,101508.16
2023-01-22T08:24:10.319Z,101509.84
2023-01-22T08:26:37.353Z,101466.97
2023-01-22T08:29:07.251Z,101453.06
2023-01-22T08:31:34.443Z,101470.56
2023-01-22T08:34:01.032Z,101437.31
2023-01-22T08:36:27.934Z,101488.06
2023-01-22T08:38:54.982Z,101529.94
2023-01-22T08:41:22.101Z,101449.53
2023-01-22T08:43:48.782Z,101522.13
2023-01-22T08:46:15.432Z,101446.06
2023-01-22T08:48:44.162Z,101502.03
2023-01-22T08:51:12.570Z,101532.59
2023-01-22T08:53:39.242Z,101542.19
2023-01-22T08:56:06.614Z,101529.97
2023-01-22T08:58:33.325Z,101332.53
2023-01-22T09:01:00.049Z,101514.34
2023-01-22T09:03:26.664Z,101372.00
2023-01-22T09:05:53.251Z,101520.50
2023-01-22T09:08:20.321Z,101537.19
2023-01-22T09:10:46.938Z,101418.41
2023-01-22T09:13:13.538Z,101441.97
2023-01-22T09:15:40.833Z,101505.72
2023-01-22T09:18:10.833Z,101480.41
2023-01-22T09:20:37.482Z,101525.00
2023-01-22T09:23:04.362Z,101509.22
2023-01-22T09:25:31.010Z,101494.31
2023-01-22T09:27:59.399Z,101552.03
2023-01-22T09:30:27.958Z,101496.13
2023-01-22T09:32:54.470Z,101546.81
2023-01-22T09:35:21.121Z,101544.22
2023-01-22T09:37:47.664Z,101569.53
2023-01-22T09:40:27.940Z,101564.34
2023-01-22T09:43:06.933Z,101403.59
2023-01-22T09:45:38.565Z,101425.38
2023-01-22T09:48:11.188Z,101536.34
2023-01-22T09:50:38.282Z,101542.44
2023-01-22T09:53:07.612Z,101564.28
2023-01-22T09:55:40.749Z,101421.75
2023-01-22T09:58:14.130Z,101528.34
2023-01-22T10:01:01.945Z,101478.53
2023-01-22T10:03:39.297Z,101531.84
2023-01-22T10:06:13.332Z,101579.06
2023-01-22T10:09:07.907Z,101573.84
2023-01-22T10:11:34.608Z,101503.91
2023-01-22T10:14:02.636Z,101579.94
2023-01-22T10:16:29.425Z,101576.47
2023-01-22T10:19:11.892Z,101570.38
2023-01-22T10:21:45.977Z,101586.16
2023-01-22T10:24:12.936Z,101565.16
2023-01-22T10:26:41.536Z,101573.09
2023-01-22T10:29:33.041Z,101572.22
2023-01-22T10:32:02.113Z,101577.47
2023-01-22T10:34:32.532Z,101511.94
2023-01-22T10:37:10.954Z,101580.06
2023-01-22T10:39:44.752Z,101587.91
2023-01-22T10:42:19.329Z,101578.31
2023-01-22T10:44:46.485Z,101551.22
2023-01-22T10:47:23.252Z,101552.09
2023-01-22T10:50:05.727Z,101439.41
2023-01-22T10:52:45.075Z,101584.50
2023-01-22T10:55:23.314Z,101560.94
2023-01-22T10:57:55.526Z,101455.25
2023-01-22T11:00:34.826Z,101491.00
2023-01-22T11:03:36.833Z,101490.16
2023-01-22T11:06:15.656Z,101600.22
2023-01-22T11:09:06.894Z,101440.38
2023-01-22T11:11:39.805Z,101581.88
2023-01-22T11:14:21.040Z,101426.38
2023-01-22T11:16:51.607Z,101498.88
2023-01-22T11:19:35.954Z,101581.97
2023-01-22T11:22:06.466Z,101540.00
2023-01-22T11:24:36.563Z,101589.00
2023-01-22T11:27:31.632Z,101582.03
2023-01-22T11:30:34.846Z,101563.69
2023-01-22T11:33:14.284Z,101559.34
2023-01-22T11:35:49.963Z,101589.00
2023-01-22T11:38:31.077Z,101586.31
2023-01-22T11:41:07.129Z,101588.94
2023-01-22T11:44:09.293Z,101586.31
2023-01-22T11:47:26.660Z,101583.69
2023-01-22T11:50:30.481Z,101580.22
2023-01-22T11:53:26.126Z,101576.69
2023-01-22T11:56:10.545Z,101576.69
2023-01-22T11:58:46.128Z,101586.25
2023-01-22T12:01:36.388Z,101577.53
2023-01-22T12:04:14.057Z,101564.38
2023-01-22T12:06:49.419Z,101506.78
2023-01-22T12:09:30.759Z,101512.91
2023-01-22T12:12:15.771Z,101563.59
2023-01-22T12:15:16.537Z,101542.69
2023-01-22T12:18:01.662Z,101552.34
2023-01-22T12:20:52.434Z,101545.41
2023-01-22T12:23:26.237Z,101551.53
2023-01-22T12:26:14.580Z,101520.06
2023-01-22T12:28:47.444Z,101492.97
2023-01-22T12:31:21.081Z,101502.59
2023-01-22T12:33:47.850Z,101538.41
2023-01-22T12:36:19.540Z,101522.72
2023-01-22T12:39:06.274Z,101559.38
2023-01-22T12:41:54.879Z,101553.28
2023-01-22T12:44:54.928Z,101547.16
2023-01-22T12:47:49.031Z,101480.78
2023-01-22T12:50:26.471Z,101460.66
2023-01-22T12:53:06.322Z,101560.28
2023-01-22T12:55:44.243Z,101557.63
2023-01-22T12:58:26.886Z,101542.78
2023-01-22T13:01:11.632Z,101557.63
2023-01-22T13:03:40.062Z,101506.03
2023-01-22T13:06:29.312Z,101554.97
2023-01-22T13:08:55.934Z,101549.72
2023-01-22T13:11:32.791Z,101565.44
2023-01-22T13:14:19.682Z,101564.59
2023-01-22T13:16:56.426Z,101522.59
2023-01-22T13:19:29.373Z,101571.56
2023-01-22T13:21:59.364Z,101536.59
2023-01-22T13:24:25.980Z,101532.22
2023-01-22T13:26:52.533Z,101579.41
2023-01-22T13:29:26.726Z,101586.38
2023-01-22T13:31:59.988Z,101549.66
2023-01-22T13:34:28.078Z,101575.88
2023-01-22T13:36:55.739Z,101595.91
2023-01-22T13:39:29.851Z,101588.06
2023-01-22T13:42:05.332Z,101510.28
2023-01-22T13:44:38.223Z,101577.53
2023-01-22T13:47:05.563Z,101546.09
2023-01-22T13:49:35.309Z,101511.09
2023-01-22T13:52:06.550Z,101594.16
2023-01-22T13:54:45.608Z,101592.41
2023-01-22T13:57:14.465Z,101571.44
2023-01-22T13:59:51.677Z,101589.72
2023-01-22T14:02:32.541Z,101571.38
2023-01-22T14:04:59.381Z,101567.88
2023-01-22T14:07:27.221Z,101593.25
2023-01-22T14:09:55.384Z,101564.38
2023-01-22T14:12:27.038Z,101492.63
2023-01-22T14:14:54.522Z,101551.22
2023-01-22T14:17:36.545Z,101574.84
2023-01-22T14:20:04.447Z,101573.97
2023-01-22T14:22:32.410Z,101557.31
2023-01-22T14:24:58.880Z,101594.06
2023-01-22T14:27:46.533Z,101540.75
2023-01-22T14:30:16.590Z,101518.00
2023-01-22T14:32:44.799Z,101540.78
2023-01-22T14:35:31.549Z,101610.69
2023-01-22T14:37:58.198Z,101609.78
2023-01-22T14:40:27.302Z,101571.31
2023-01-22T14:42:54.042Z,101620.28
2023-01-22T14:45:20.838Z,101598.41
2023-01-22T14:47:52.061Z,101620.25
2023-01-22T14:50:20.653Z,101616.75
2023-01-22T14:52:48.475Z,101615.84
2023-01-22T14:55:15.421Z,101573.03
2023-01-22T14:57:41.956Z,101542.41
2023-01-22T15:00:11.253Z,101561.66
2023-01-22T15:02:39.958Z,101462.88
2023-01-22T15:05:07.548Z,101593.13
2023-01-22T15:07:34.911Z,101560.78
2023-01-22T15:10:02.689Z,101640.28
2023-01-22T15:12:29.425Z,101599.28
2023-01-22T15:14:56.130Z,101618.50
2023-01-22T15:17:22.695Z,101621.97
2023-01-22T15:19:49.336Z,101530.22
2023-01-22T15:22:16.325Z,101524.88
2023-01-22T15:24:43.813Z,101490.69
2023-01-22T15:27:11.285Z,101620.06
2023-01-22T15:29:38.086Z,101565.81
2023-01-22T15:32:04.919Z,101634.03
2023-01-22T15:34:31.561Z,101606.84
2023-01-22T15:36:58.289Z,101550.03
2023-01-22T15:39:24.868Z,101607.72
2023-01-22T15:41:51.508Z,101521.09
2023-01-22T15:44:18.134Z,101470.44
2023-01-22T15:46:44.773Z,101628.72
2023-01-22T15:49:13.144Z,101574.50
2023-01-22T15:51:41.316Z,101658.44
2023-01-22T15:54:08.703Z,101662.81
2023-01-22T15:56:37.484Z,101660.19
2023-01-22T15:59:04.832Z,101654.94
2023-01-22T16:01:31.699Z,101622.53
2023-01-22T16:03:58.578Z,101619.03
2023-01-22T16:06:30.047Z,101631.19
2023-01-22T16:08:58.628Z,101659.28
2023-01-22T16:11:26.845Z,101572.63
2023-01-22T16:13:53.707Z,101639.94
2023-01-22T16:16:31.539Z,101681.06
2023-01-22T16:19:00.228Z,101609.31
2023-01-22T16:21:26.922Z,101636.41
2023-01-22T16:23:55.954Z,101658.28
2023-01-22T16:26:26.003Z,101639.03
2023-01-22T16:28:54.441Z,101679.25
2023-01-22T16:31:24.690Z,101532.34
2023-01-22T16:33:54.838Z,101700.22
2023-01-22T16:36:26.129Z,101681.00
2023-01-22T16:38:53.162Z,101695.03
2023-01-22T16:41:25.102Z,101694.13
2023-01-22T16:44:06.598Z,101658.19
2023-01-22T16:46:34.552Z,101633.69
2023-01-22T16:49:14.354Z,101702.81
2023-01-22T16:51:43.985Z,101659.84
2023-01-22T16:54:19.553Z,101708.84
2023-01-22T16:56:46.138Z,101564.56
2023-01-22T16:59:12.783Z,101650.28
2023-01-22T17:01:41.428Z,101680.84
2023-01-22T17:04:08.431Z,101637.97
2023-01-22T17:06:43.553Z,101715.81
2023-01-22T17:09:16.304Z,101685.22
2023-01-22T17:11:43.772Z,101595.00
2023-01-22T17:14:10.270Z,101728.00
2023-01-22T17:16:38.052Z,101721.91
2023-01-22T17:19:04.945Z,101707.81
2023-01-22T17:21:31.471Z,101703.47
2023-01-22T17:23:58.551Z,101643.03
2023-01-22T17:26:25.411Z,101733.19
2023-01-22T17:28:51.977Z,101628.13
2023-01-22T17:31:22.193Z,101727.13
2023-01-22T17:33:49.862Z,101734.97
2023-01-22T17:36:19.067Z,101732.34
2023-01-22T17:38:45.870Z,101700.88
2023-01-22T17:41:18.346Z,101639.53
2023-01-22T17:43:46.486Z,101728.88
2023-01-22T17:46:16.211Z,101706.94
2023-01-22T17:48:43.958Z,101739.34
2023-01-22T17:51:13.978Z,101681.50
2023-01-22T17:53:42.549Z,101677.06
2023-01-22T17:56:14.481Z,101748.00
2023-01-22T17:58:43.569Z,101695.38
2023-01-22T18:01:12.758Z,101721.59
2023-01-22T18:03:39.620Z,101683.91
2023-01-22T18:06:06.787Z,101602.34
2023-01-22T18:08:36.532Z,101692.56
2023-01-22T18:11:08.577Z,101689.78
2023-01-22T18:13:35.798Z,101661.03
2023-01-22T18:16:02.964Z,101660.09
2023-01-22T18:18:29.606Z,101762.53
2023-01-22T18:20:56.609Z,101701.28
2023-01-22T18:23:24.269Z,101764.44
2023-01-22T18:25:54.744Z,101747.72
2023-01-22T18:28:21.355Z,101638.34
2023-01-22T18:30:48.036Z,101766.09
2023-01-22T18:33:18.229Z,101777.44
2023-01-22T18:35:46.738Z,101780.91
2023-01-22T18:38:13.551Z,101722.16
2023-01-22T18:40:40.458Z,101765.03
2023-01-22T18:43:10.035Z,101731.81
2023-01-22T18:45:37.800Z,101792.25
2023-01-22T18:48:04.754Z,101728.34
2023-01-22T18:50:31.360Z,101758.16
2023-01-22T18:52:59.016Z,101746.78
2023-01-22T18:55:25.694Z,101680.06
2023-01-22T18:57:56.863Z,101743.16
2023-01-22T19:00:23.782Z,101707.03
2023-01-22T19:02:57.891Z,101649.38
2023-01-22T19:05:26.543Z,101644.16
2023-01-22T19:07:53.417Z,101638.00
2023-01-22T19:10:20.524Z,101799.06
2023-01-22T19:12:47.051Z,101754.31
2023-01-22T19:15:13.653Z,101691.28
2023-01-22T19:17:40.304Z,101734.25
2023-01-22T19:20:08.977Z,101799.09
2023-01-22T19:22:35.728Z,101764.88
2023-01-22T19:25:02.905Z,101630.66
2023-01-22T19:27:30.152Z,101759.56
2023-01-22T19:29:57.087Z,101545.78
2023-01-22T19:32:27.900Z,101779.72
2023-01-22T19:34:55.365Z,101821.69
2023-01-22T19:37:22.134Z,101794.44
2023-01-22T19:39:48.681Z,101711.25
2023-01-22T19:42:15.823Z,101619.38
2023-01-22T19:44:43.064Z,101687.69
2023-01-22T19:47:11.002Z,101792.81
2023-01-22T19:49:38.044Z,101752.50
2023-01-22T19:52:04.768Z,101796.28
2023-01-22T19:54:31.259Z,101835.66
2023-01-22T19:56:58.531Z,101722.59
2023-01-22T19:59:25.374Z,101773.50
2023-01-22T20:01:52.500Z,101807.75
2023-01-22T20:04:25.380Z,101828.75
2023-01-22T20:06:57.285Z,101749.72
2023-01-22T20:09:23.821Z,101810.13
2023-01-22T20:11:53.742Z,101810.16
2023-01-22T20:14:22.269Z,101836.28
2023-01-22T20:16:49.173Z,101777.59
2023-01-22T20:19:15.927Z,101761.03
2023-01-22T20:21:42.544Z,101803.84
2023-01-22T20:24:09.701Z,101800.41
2023-01-22T20:26:36.446Z,101824.06
2023-01-22T20:29:03.161Z,101817.13
2023-01-22T20:31:29.894Z,101866.13
2023-01-22T20:33:57.141Z,101825.94
2023-01-22T20:36:29.067Z,101851.19
2023-01-22T20:38:56.524Z,101793.41
2023-01-22T20:41:24.548Z,101849.53
2023-01-22T20:43:52.598Z,101774.78
2023-01-22T20:46:21.888Z,101804.84
2023-01-22T20:48:49.173Z,101753.91
2023-01-22T20:51:21.130Z,101800.38
2023-01-22T20:53:50.799Z,101756.47
2023-01-22T20:56:25.490Z,101760.84
2023-01-22T20:58:57.558Z,101833.63
2023-01-22T21:01:24.834Z,101862.56
2023-01-22T21:03:52.587Z,101878.31
2023-01-22T21:06:20.126Z,101857.34
2023-01-22T21:08:52.135Z,101866.97
2023-01-22T21:11:20.897Z,101840.66
2023-01-22T21:13:49.405Z,101868.72
2023-01-22T21:16:19.681Z,101823.97
2023-01-22T21:18:46.760Z,101844.09
2023-01-22T21:21:17.846Z,101884.41
2023-01-22T21:23:44.997Z,101893.09
2023-01-22T21:26:15.329Z,101624.09
2023-01-22T21:28:41.920Z,101710.03
2023-01-22T21:31:14.683Z,101743.13
2023-01-22T21:33:41.867Z,101831.78
2023-01-22T21:36:09.721Z,101815.16
2023-01-22T21:38:37.317Z,101770.50
2023-01-22T21:41:04.014Z,101864.28
2023-01-22T21:43:49.286Z,101862.50
2023-01-22T21:46:21.839Z,101830.00
2023-01-22T21:48:59.672Z,101815.22
2023-01-22T21:51:28.357Z,101810.84
2023-01-22T21:53:56.513Z,101867.78
2023-01-22T21:56:23.782Z,101867.78
2023-01-22T21:58:50.624Z,101646.91
2023-01-22T22:01:21.072Z,101876.53
2023-01-22T22:03:47.875Z,101840.50
2023-01-22T22:06:14.601Z,101886.09
2023-01-22T22:08:43.560Z,101596.88
2023-01-22T22:11:12.821Z,101824.72
2023-01-22T22:13:39.834Z,101892.19
2023-01-22T22:16:08.178Z,101873.94
2023-01-22T22:18:35.836Z,101857.22
2023-01-22T22:21:04.891Z,101873.03
2023-01-22T22:23:32.367Z,101774.72
2023-01-22T22:25:59.481Z,101841.34
2023-01-22T22:28:26.710Z,101873.66
2023-01-22T22:30:53.585Z,101584.53
2023-01-22T22:33:20.312Z,101902.53
2023-01-22T22:35:47.281Z,101831.56
2023-01-22T22:38:14.948Z,101892.97
2023-01-22T22:40:41.839Z,101686.84
2023-01-22T22:43:08.999Z,101844.59
2023-01-22T22:45:37.723Z,101870.84
2023-01-22T22:48:04.885Z,101884.03
2023-01-22T22:50:31.622Z,101862.19
2023-01-22T22:52:58.178Z,101908.59
2023-01-22T22:55:26.706Z,101881.47
2023-01-22T22:57:53.299Z,101870.91
2023-01-22T23:00:20.216Z,101884.03
2023-01-22T23:02:47.062Z,101856.03
2023-01-22T23:05:13.728Z,101883.13
2023-01-22T23:07:40.442Z,101774.19
2023-01-22T23:10:07.791Z,101843.28
2023-01-22T23:12:34.450Z,101523.69
2023-01-22T23:15:01.087Z,101725.97
2023-01-22T23:17:27.628Z,101846.16
2023-01-22T23:19:54.228Z,101875.84
2023-01-22T23:22:20.850Z,101590.16
2023-01-22T23:24:47.484Z,101813.63
2023-01-22T23:27:13.971Z,101838.16
2023-01-22T23:29:40.450Z,101871.47
2023-01-22T23:32:07.039Z,101761.91
2023-01-22T23:34:33.555Z,101830.19
2023-01-22T23:37:00.096Z,101840.69
2023-01-22T23:39:26.700Z,101824.84
2023-01-22T23:41:53.228Z,101783.66
2023-01-22T23:44:20.014Z,101894.06
2023-01-22T23:46:46.657Z,101911.78
2023-01-22T23:49:13.232Z,101895.91
2023-01-22T23:51:42.196Z,101905.72
2023-01-22T23:54:09.012Z,101911.88
2023-01-22T23:56:35.601Z,101809.25
2023-01-22T23:59:02.114Z,101752.13
